createdAt,value
2019-06-26T00:01:15.894Z,26.88
2019-06-26T00:06:24.267Z,26.88
2019-06-26T00:11:40.688Z,26.91
2019-06-26T00:16:46.066Z,26.76
2019-06-26T00:21:55.484Z,26.73
2019-06-26T00:27:06.077Z,26.68
2019-06-26T00:37:42.466Z,26.52
2019-06-26T00:42:57.056Z,26.41
2019-06-26T00:48:02.743Z,26.38
2019-06-26T00:53:13.700Z,26.36
2019-06-26T00:58:21.989Z,26.36
2019-06-26T01:03:30.307Z,26.24
2019-06-26T01:08:38.515Z,26.10
2019-06-26T01:13:57.695Z,26.10
2019-06-26T01:18:52.261Z,25.87
2019-06-26T01:23:56.027Z,25.66
2019-06-26T01:29:00.017Z,25.42
2019-06-26T01:34:04.026Z,25.59
2019-06-26T01:39:07.764Z,25.59
2019-06-26T01:44:15.361Z,25.67
2019-06-26T01:49:17.440Z,25.63
2019-06-26T01:54:21.121Z,25.64
2019-06-26T01:59:24.883Z,25.55
2019-06-26T02:04:28.654Z,25.55
2019-06-26T02:09:32.478Z,25.51
2019-06-26T02:14:36.175Z,25.51
2019-06-26T02:19:40.087Z,25.67
2019-06-26T02:24:43.922Z,25.55
2019-06-26T02:29:48.880Z,25.47
2019-06-26T02:34:52.614Z,25.55
2019-06-26T02:39:56.543Z,25.51
2019-06-26T02:45:00.758Z,25.57
2019-06-26T02:50:08.629Z,25.43
2019-06-26T02:55:12.740Z,25.56
2019-06-26T03:00:16.784Z,25.54
2019-06-26T03:05:20.453Z,25.54
2019-06-26T03:10:24.559Z,25.56
2019-06-26T03:15:28.312Z,25.56
2019-06-26T03:20:37.910Z,25.48
2019-06-26T03:25:41.771Z,25.49
2019-06-26T03:30:45.840Z,25.49
2019-06-26T03:35:49.577Z,25.40
2019-06-26T03:40:53.690Z,25.32
2019-06-26T03:45:57.487Z,25.28
2019-06-26T03:51:01.239Z,25.30
2019-06-26T03:56:05.043Z,25.27
2019-06-26T04:01:08.761Z,25.28
2019-06-26T04:06:12.951Z,25.28
2019-06-26T04:11:16.913Z,25.22
2019-06-26T04:16:20.702Z,25.22
2019-06-26T04:21:24.384Z,25.22
2019-06-26T04:26:28.272Z,25.14
2019-06-26T04:31:32.322Z,24.86
2019-06-26T04:36:36.058Z,24.86
2019-06-26T04:41:40.113Z,25.03
2019-06-26T04:46:43.806Z,25.01
2019-06-26T04:51:47.619Z,25.01
2019-06-26T04:56:51.303Z,24.88
2019-06-26T05:01:55.117Z,24.88
2019-06-26T05:06:58.902Z,24.88
2019-06-26T05:12:04.560Z,24.64
2019-06-26T05:17:09.510Z,24.81
2019-06-26T05:22:13.375Z,24.89
2019-06-26T05:27:17.089Z,24.89
2019-06-26T05:32:20.958Z,24.87
2019-06-26T05:37:24.945Z,24.87
2019-06-26T05:42:28.896Z,24.89
2019-06-26T05:47:32.584Z,25.15
2019-06-26T05:52:36.723Z,25.20
2019-06-26T05:57:41.915Z,25.20
2019-06-26T06:02:46.391Z,25.14
2019-06-26T06:07:50.254Z,25.31
2019-06-26T06:12:54.044Z,25.35
2019-06-26T06:17:57.927Z,25.35
2019-06-26T06:23:01.780Z,25.50
2019-06-26T06:28:05.558Z,25.77
2019-06-26T06:33:09.422Z,25.85
2019-06-26T06:38:13.195Z,25.88
2019-06-26T06:43:17.123Z,25.88
2019-06-26T06:48:22.393Z,26.21
2019-06-26T06:53:29.398Z,26.31
2019-06-26T06:59:10.032Z,26.34
2019-06-26T07:03:52.741Z,26.36
2019-06-26T07:09:27.327Z,26.36
2019-06-26T07:14:20.180Z,26.51
2019-06-26T07:19:23.946Z,26.61
2019-06-26T07:24:30.738Z,26.75
2019-06-26T07:29:44.083Z,26.83
2019-06-26T07:34:47.092Z,26.90
2019-06-26T07:39:51.029Z,27.04
2019-06-26T07:44:54.957Z,27.17
2019-06-26T07:49:58.771Z,27.17
2019-06-26T07:55:03.680Z,27.28
2019-06-26T08:00:08.916Z,27.34
2019-06-26T08:05:14.357Z,27.49
2019-06-26T08:10:18.661Z,27.60
2019-06-26T08:15:22.508Z,27.73
2019-06-26T08:20:26.433Z,27.78
2019-06-26T08:25:30.356Z,27.78
2019-06-26T08:30:34.049Z,27.91
2019-06-26T08:35:37.764Z,27.98
2019-06-26T08:40:41.600Z,28.12
2019-06-26T08:45:45.343Z,28.31
2019-06-26T08:50:49.046Z,28.45
2019-06-26T08:55:52.751Z,28.49
2019-06-26T09:00:56.861Z,28.49
2019-06-26T09:06:00.737Z,28.55
2019-06-26T09:11:04.544Z,28.71
2019-06-26T09:16:08.236Z,28.90
2019-06-26T09:21:11.931Z,28.90
2019-06-26T09:26:15.621Z,29.04
2019-06-26T09:31:19.609Z,29.19
2019-06-26T09:36:23.400Z,29.35
2019-06-26T09:41:27.167Z,29.46
2019-06-26T09:46:31.034Z,29.56
2019-06-26T09:51:34.835Z,29.56
2019-06-26T09:56:38.614Z,29.79
2019-06-26T10:01:42.584Z,29.75
2019-06-26T10:06:47.951Z,30.11
2019-06-26T10:11:53.482Z,30.34
2019-06-26T10:16:57.554Z,30.59
2019-06-26T10:22:01.261Z,30.59
2019-06-26T10:27:05.142Z,30.78
2019-06-26T10:32:08.895Z,30.78
2019-06-26T10:37:12.635Z,31.18
2019-06-26T10:42:16.457Z,31.44
2019-06-26T10:47:20.145Z,31.65
2019-06-26T10:52:23.907Z,31.83
2019-06-26T10:57:27.784Z,31.96
2019-06-26T11:02:31.709Z,31.96
2019-06-26T11:07:36.618Z,32.15
2019-06-26T11:12:40.727Z,32.15
2019-06-26T11:17:44.627Z,32.23
2019-06-26T11:22:48.900Z,32.50
2019-06-26T11:27:52.833Z,32.67
2019-06-26T11:32:56.531Z,32.74
2019-06-26T11:38:00.244Z,32.86
2019-06-26T11:43:04.097Z,32.86
2019-06-26T11:48:07.992Z,33.23
2019-06-26T11:53:11.710Z,33.37
2019-06-26T11:58:15.543Z,33.37
2019-06-26T12:03:19.407Z,33.59
2019-06-26T12:08:23.650Z,33.60
2019-06-26T12:13:27.470Z,33.84
2019-06-26T12:18:31.631Z,33.84
2019-06-26T12:23:35.588Z,33.92
2019-06-26T12:28:39.664Z,33.92
2019-06-26T12:33:43.752Z,33.88
2019-06-26T12:38:47.498Z,34.13
2019-06-26T12:43:51.368Z,34.13
2019-06-26T12:48:55.151Z,34.21
2019-06-26T12:53:58.817Z,34.37
2019-06-26T12:59:02.576Z,34.37
2019-06-26T13:04:06.362Z,34.39
2019-06-26T13:09:10.096Z,34.47
2019-06-26T13:14:13.880Z,34.51
2019-06-26T13:19:17.649Z,34.71
2019-06-26T13:24:21.381Z,34.82
2019-06-26T13:29:25.232Z,34.82
2019-06-26T13:34:28.943Z,34.90
2019-06-26T13:39:32.676Z,34.94
2019-06-26T13:44:36.447Z,35.02
2019-06-26T13:49:40.209Z,35.02
2019-06-26T13:54:44.088Z,35.11
2019-06-26T13:59:47.871Z,35.20
2019-06-26T14:04:51.597Z,35.24
2019-06-26T14:09:55.356Z,35.29
2019-06-26T14:14:59.298Z,35.32
2019-06-26T14:20:14.533Z,35.36
2019-06-26T14:25:18.345Z,35.63
2019-06-26T14:30:22.735Z,35.63
2019-06-26T14:35:26.577Z,35.54
2019-06-26T14:40:30.559Z,35.65
2019-06-26T14:45:34.391Z,35.70
2019-06-26T14:50:38.322Z,35.70
2019-06-26T14:55:42.293Z,35.72
2019-06-26T15:00:46.162Z,35.74
2019-06-26T15:05:50.197Z,35.85
2019-06-26T15:10:53.885Z,35.80
2019-06-26T15:15:57.720Z,35.74
2019-06-26T15:21:01.662Z,35.65
2019-06-26T15:26:05.616Z,35.67
2019-06-26T15:31:09.474Z,35.71
2019-06-26T15:36:13.154Z,35.71
2019-06-26T15:41:17.049Z,35.72
2019-06-26T15:46:20.745Z,35.63
2019-06-26T15:51:24.597Z,35.50
2019-06-26T15:56:28.358Z,35.46
2019-06-26T16:01:32.289Z,35.46
2019-06-26T16:06:36.407Z,35.47
2019-06-26T16:11:40.144Z,35.33
2019-06-26T16:16:43.899Z,35.23
2019-06-26T16:21:47.775Z,35.15
2019-06-26T16:26:51.470Z,35.15
2019-06-26T16:31:55.243Z,35.07
2019-06-26T16:36:59.187Z,34.94
2019-06-26T16:42:02.995Z,34.68
2019-06-26T16:47:06.711Z,34.67
2019-06-26T16:52:10.566Z,34.57
2019-06-26T16:57:14.326Z,34.49
2019-06-26T17:02:18.274Z,34.39
2019-06-26T17:07:22.123Z,34.30
2019-06-26T17:12:26.001Z,34.30
2019-06-26T17:17:29.772Z,34.05
2019-06-26T17:22:33.608Z,34.05
2019-06-26T17:27:37.479Z,33.93
2019-06-26T17:32:42.607Z,33.79
2019-06-26T17:37:46.646Z,33.57
2019-06-26T17:42:50.811Z,33.57
2019-06-26T17:47:54.633Z,33.37
2019-06-26T17:52:58.460Z,33.37
2019-06-26T17:58:02.139Z,33.33
2019-06-26T18:03:05.965Z,33.27
2019-06-26T18:08:09.884Z,33.16
2019-06-26T18:13:15.935Z,33.12
2019-06-26T18:18:19.732Z,33.12
2019-06-26T18:23:37.142Z,33.04
2019-06-26T18:28:30.626Z,32.97
2019-06-26T18:33:34.396Z,32.77
2019-06-26T18:38:41.759Z,32.72
2019-06-26T18:43:46.689Z,32.62
2019-06-26T18:48:50.755Z,32.62
2019-06-26T18:53:54.696Z,32.49
2019-06-26T18:58:58.663Z,32.30
2019-06-26T19:04:02.429Z,32.26
2019-06-26T19:09:06.597Z,32.26
2019-06-26T19:14:10.638Z,32.16
2019-06-26T19:19:14.514Z,32.09
2019-06-26T19:24:18.467Z,31.99
2019-06-26T19:29:22.386Z,31.94
2019-06-26T19:34:27.507Z,31.80
2019-06-26T19:39:31.522Z,31.74
2019-06-26T19:44:35.337Z,31.66
2019-06-26T19:49:39.293Z,31.61
2019-06-26T19:54:43.192Z,31.57
2019-06-26T19:59:47.292Z,31.57
2019-06-26T20:04:51.131Z,31.50
2019-06-26T20:09:55.029Z,31.30
2019-06-26T20:14:59.232Z,31.30
2019-06-26T20:20:05.387Z,31.21
2019-06-26T20:25:11.527Z,31.14
2019-06-26T20:30:15.764Z,31.14
2019-06-26T20:35:19.859Z,31.07
2019-06-26T20:40:23.831Z,30.88
2019-06-26T20:45:27.837Z,30.80
2019-06-26T20:50:31.663Z,30.76
2019-06-26T20:55:35.520Z,30.71
2019-06-26T21:00:39.797Z,30.71
2019-06-26T21:05:43.671Z,30.63
2019-06-26T21:10:47.391Z,30.60
2019-06-26T21:15:53.050Z,30.53
2019-06-26T21:20:56.595Z,30.34
2019-06-26T21:26:00.537Z,30.30
2019-06-26T21:31:04.307Z,30.18
2019-06-26T21:36:08.010Z,30.18
2019-06-26T21:41:11.985Z,29.99
2019-06-26T21:46:15.837Z,29.99
2019-06-26T21:51:19.905Z,29.93
2019-06-26T21:56:23.835Z,29.74
2019-06-26T22:01:45.540Z,29.74
2019-06-26T22:07:07.371Z,29.74
2019-06-26T22:12:15.867Z,29.24
2019-06-26T22:17:20.934Z,29.16
2019-06-26T22:22:24.912Z,29.16
2019-06-26T22:27:29.006Z,29.01
2019-06-26T22:32:32.856Z,29.01
2019-06-26T22:37:36.804Z,28.92
2019-06-26T22:42:41.012Z,28.73
2019-06-26T22:47:45.266Z,28.73
2019-06-26T22:52:49.091Z,28.55
2019-06-26T22:57:52.987Z,28.55
2019-06-26T23:02:56.831Z,28.47
2019-06-26T23:08:00.582Z,28.47
2019-06-26T23:13:04.309Z,28.38
2019-06-26T23:18:08.026Z,28.30
2019-06-26T23:23:11.806Z,28.26
2019-06-26T23:28:15.587Z,28.28
2019-06-26T23:33:19.255Z,28.25
2019-06-26T23:38:23.144Z,28.25
2019-06-26T23:43:26.913Z,28.21
2019-06-26T23:48:30.673Z,28.13
2019-06-26T23:53:34.430Z,28.14
2019-06-26T23:58:38.148Z,28.10
